Aérodrome :
LOGIN :

S'inscrire | Disclaimer

   EN    FR    IT 

 










Légende :    VFR   VFR Marginal   IFR   IFR Intensif   IFR Très Intensif
Visi : 
Plafond : 
>= 8 km
>= 3000ft
5 à 8 km
1000 à 3000 ft
1500m à 5 km
500 à 1000 ft
800 à 1500m
200 à 500 ft
< 800m
< 200 ft
Symboles :   Orages  Brouillard  Fortes neiges  Fortes précipitations  Vent > 20 kt
SIGMETs :   Divers  Orages  Givrage  Turbulence  Onde Orograph.  Cendres Volcan.







- Altitude de l'aérodrome : 1345 ft
- Code IATA : FRZ


ETHF - Fritzlar

DERNIER METAR :
  • 280720Z 20019G32KT 9999 SCT020 SCT220 05/01 Q0994 BLU+BLU TEMPO WHT

METARs EXPIRÉS :
  • 280621Z 21016KT 9999 FEW015 SCT020 05/01 Q0993 BLU+BLU TEMPO WHT
  • 280520Z 21015KT 9999 FEW020 BKN040 BKN210 05/01 Q0993 BLU BLU TEMPO WHT

TAF TAF ETHF
Valide du 28 à 06h jusqu'au 28 à 15h UTC


280506Z 2806/2815 21015G25KT 9999 NSW FEW020 BKN040
TEMPO 2806/2812 22020G30KT 6000 SHRA FEW010 BKN020TCU
Pas de NOTAMs connus pour ce terrain.
4 SIGMETs publiés pour la FIR Langen (EDGG) :
 
Annulation du SIGMET 2 
EDGG SIGMET 6 VALID 280638/280700 EDZF
EDGG LANGEN FIR CNL SIGMET 2 280400/280700=
Turbulence forte
EDGG SIGMET 5 VALID 280636/281000 EDZF
EDGG LANGEN FIR SEV TURB FCST E OF LINE N5200 E00905 - N4730 E00740 FL140/245 MOV E WKN=
Annulation du SIGMET 3 
EDGG SIGMET 4 VALID 280700/281000 EDZF
EDGG LANGEN FIR CNL SIGMET 3 280700/281000=
SIGMET 3  ANNULÉ :
Turbulence forte
EDGG SIGMET 3 VALID 280700/281000 EDZF
EDGG LANGEN FIR SEV TURB FCST E OF LINE N5200 E00905 - N4730 E00740 FL180/245 MOV E WKN=



MET'MAP, la Météo Aéronautique d'un coup d'oeil ! - Copyright ORBIFLY Décembre 2007 - Disclaimer

ORBIFLY MET'MAP TEAM :

Programmation & Développement : Alexandra Zaïnal
Conception & Développement : Baudouin d'Aumeries
Co-Programmation & Développement : Marc-Olivier Méhu
Soutien technique & logistique : Manuel Goepfert

Contact : metmap@orbifly.com




SOURCES & CREDITS :

   NOAA